Nairn, United Kingdom
Current Conditions -  °F | °C
As of 3:50 AM on Sunday 26 Oct 2014 (Local Time) from EGPE Reporting Station
Light Rain Light Rain  
Wind Chill: 50°   Ceiling: 4200
Heat Index: 50°   Visibility: 6mi
Dew Point: 48°   Wind: 26mph
Humidity: 94%   Direction: 210°SSW
Pressure: 29.41"   Gusts: NA
Location:  57.58°N, 3.88°W
Report Text: EGPE 260250Z AUTO 21023KT 9999 -RA BKN042/// 10/09 Q0996
Loading
Personal Weather Stations






























Interactive Weather Map
Tropical Storm Tracking
New forecast layout! Learn more

10-Day Weather Forecast

Advertisements
Track Severe Weather on mobile